Time;durP1;ratioP1;P1;durP2;ratioP2;P2;SDS_P1;SDS_P2;PMS_P1;PMS_P2;Temp;Humidity;BMP_temperature;BMP_pressure;BME280_temperature;BME280_humidity;BME280_pressure;Samples;Min_cycle;Max_cycle;Signal;HPM_P1;HPM_P2
2021/05/09 00:01:39;;;;;;;31.27;12.68;;;;;;;;;;8324792;28;20060;-69
2021/05/09 00:05:44;;;;;;;30.05;13.73;;;;;;;;;;8324781;28;20382;-68
2021/05/09 00:09:52;;;;;;;30.02;12.27;;;;;;;;;;8325134;28;20051;-69
2021/05/09 00:14:00;;;;;;;26.73;11.45;;;;;;;;;;8327583;28;20316;-68
2021/05/09 00:18:05;;;;;;;29.05;12.57;;;;;;;;;;8305316;28;20439;-69
2021/05/09 00:22:09;;;;;;;25.60;11.15;;;;;;;;;;8326204;28;20343;-68
2021/05/09 00:26:14;;;;;;;33.55;13.48;;;;;;;;;;8305912;28;20471;-68
2021/05/09 00:30:19;;;;;;;35.03;13.43;;;;;;;;;;8324483;28;20052;-69
2021/05/09 00:34:22;;;;;;;37.65;14.40;;;;;;;;;;8324133;28;20083;-69
2021/05/09 00:38:26;;;;;;;24.95;11.07;;;;;;;;;;8307068;28;20377;-69
2021/05/09 00:42:31;;;;;;;29.02;12.82;;;;;;;;;;8323539;28;20398;-69
2021/05/09 00:46:36;;;;;;;27.42;12.13;;;;;;;;;;8324145;28;20383;-68
2021/05/09 00:50:49;;;;;;;26.10;10.93;;;;;;;;;;8324172;28;20458;-69
2021/05/09 00:54:58;;;;;;;20.90;9.65;;;;;;;;;;8305990;28;20351;-69
2021/05/09 00:59:02;;;;;;;24.05;10.07;;;;;;;;;;8324516;28;20371;-68
2021/05/09 01:03:08;;;;;;;25.25;12.15;;;;;;;;;;8295853;28;20391;-70
2021/05/09 01:07:15;;;;;;;28.67;11.55;;;;;;;;;;8289674;28;20463;-69
2021/05/09 01:11:19;;;;;;;27.17;10.32;;;;;;;;;;8289808;28;20414;-68
2021/05/09 01:15:24;;;;;;;22.15;9.77;;;;;;;;;;8289043;28;20482;-69
2021/05/09 01:19:30;;;;;;;24.45;9.50;;;;;;;;;;8289978;28;20371;-68
2021/05/09 01:23:34;;;;;;;20.33;9.27;;;;;;;;;;8256323;28;20359;-70
2021/05/09 01:27:40;;;;;;;20.52;9.65;;;;;;;;;;8255500;28;20471;-68
2021/05/09 01:31:46;;;;;;;19.60;9.15;;;;;;;;;;8288625;28;20451;-68
2021/05/09 01:35:51;;;;;;;17.85;8.43;;;;;;;;;;8289575;28;20469;-69
2021/05/09 01:39:56;;;;;;;23.95;10.38;;;;;;;;;;8271013;28;20056;-68
2021/05/09 01:43:59;;;;;;;18.75;9.15;;;;;;;;;;8290199;28;20102;-67
2021/05/09 01:48:05;;;;;;;18.80;8.52;;;;;;;;;;8289927;28;20490;-68
2021/05/09 01:52:09;;;;;;;23.75;8.43;;;;;;;;;;8290624;28;20479;-68
2021/05/09 01:56:14;;;;;;;17.63;9.05;;;;;;;;;;8295647;28;20349;-68
2021/05/09 02:00:22;;;;;;;18.55;8.82;;;;;;;;;;8278888;28;20551;-68
2021/05/09 02:04:33;;;;;;;22.05;8.98;;;;;;;;;;8277703;28;20362;-68
2021/05/09 02:08:41;;;;;;;16.17;7.63;;;;;;;;;;8260854;28;20430;-70
2021/05/09 02:13:02;;;;;;;19.40;8.25;;;;;;;;;;8276909;28;20064;-68
2021/05/09 02:17:15;;;;;;;22.38;9.10;;;;;;;;;;8263243;28;20487;-69
2021/05/09 02:21:28;;;;;;;19.27;8.40;;;;;;;;;;8278103;28;20440;-68
2021/05/09 02:25:33;;;;;;;15.82;7.25;;;;;;;;;;8276880;28;20044;-68
2021/05/09 02:29:41;;;;;;;21.15;7.50;;;;;;;;;;8276730;28;20503;-69
2021/05/09 02:33:47;;;;;;;17.33;7.82;;;;;;;;;;8295171;28;20356;-68
2021/05/09 02:37:52;;;;;;;21.98;7.53;;;;;;;;;;8278427;28;20056;-68
2021/05/09 02:41:56;;;;;;;16.15;8.05;;;;;;;;;;8276924;28;20052;-68
2021/05/09 02:46:02;;;;;;;14.43;7.38;;;;;;;;;;8261976;28;20067;-67
2021/05/09 02:50:11;;;;;;;16.80;7.38;;;;;;;;;;8276396;28;20387;-68
2021/05/09 02:54:17;;;;;;;18.40;8.68;;;;;;;;;;8292641;28;20388;-68
2021/05/09 02:58:21;;;;;;;15.20;6.90;;;;;;;;;;8293533;28;20361;-68
2021/05/09 03:02:26;;;;;;;15.20;7.43;;;;;;;;;;8294070;28;20477;-68
2021/05/09 03:06:33;;;;;;;15.20;7.78;;;;;;;;;;8275911;28;20481;-69
2021/05/09 03:10:41;;;;;;;13.67;7.10;;;;;;;;;;8293705;28;20644;-68
2021/05/09 03:14:45;;;;;;;19.15;9.20;;;;;;;;;;8293577;28;20366;-69
2021/05/09 03:18:50;;;;;;;14.98;6.43;;;;;;;;;;8295949;28;20075;-68
2021/05/09 03:22:55;;;;;;;14.30;6.68;;;;;;;;;;8295362;28;20487;-69
2021/05/09 03:27:00;;;;;;;13.43;6.50;;;;;;;;;;8295193;28;20481;-67
2021/05/09 03:31:04;;;;;;;36.80;17.55;;;;;;;;;;8291759;28;20378;-68
2021/05/09 03:35:11;;;;;;;14.68;7.22;;;;;;;;;;8292631;28;20071;-68
2021/05/09 03:39:15;;;;;;;15.40;5.75;;;;;;;;;;8292920;28;20362;-69
2021/05/09 03:43:20;;;;;;;14.02;6.35;;;;;;;;;;8292401;28;20447;-68
2021/05/09 03:47:26;;;;;;;13.30;5.95;;;;;;;;;;8292740;28;20452;-69
2021/05/09 03:51:30;;;;;;;16.13;6.32;;;;;;;;;;8291951;28;20447;-68
2021/05/09 03:55:35;;;;;;;12.25;6.35;;;;;;;;;;8290244;28;20481;-69
2021/05/09 03:59:40;;;;;;;13.32;6.15;;;;;;;;;;8292905;28;20071;-68
2021/05/09 04:03:44;;;;;;;14.55;6.38;;;;;;;;;;8292081;28;20360;-69
2021/05/09 04:07:49;;;;;;;11.93;5.88;;;;;;;;;;8292978;28;20060;-68
2021/05/09 04:11:53;;;;;;;10.32;5.25;;;;;;;;;;8274680;28;20501;-68
2021/05/09 04:15:57;;;;;;;10.15;5.13;;;;;;;;;;8292536;28;20367;-70
2021/05/09 04:20:02;;;;;;;12.35;5.68;;;;;;;;;;8292360;28;20367;-69
2021/05/09 04:24:08;;;;;;;9.90;5.18;;;;;;;;;;8291795;28;20391;-69
2021/05/09 04:28:12;;;;;;;11.85;5.57;;;;;;;;;;8290951;28;20094;-68
2021/05/09 04:32:17;;;;;;;11.00;4.90;;;;;;;;;;8290519;28;20357;-68
2021/05/09 04:36:21;;;;;;;9.48;4.55;;;;;;;;;;8291342;28;20414;-70
2021/05/09 04:40:27;;;;;;;12.57;4.32;;;;;;;;;;8291145;28;20375;-68
2021/05/09 04:44:31;;;;;;;18.17;6.97;;;;;;;;;;8290707;28;20562;-70
2021/05/09 04:48:35;;;;;;;11.52;5.35;;;;;;;;;;8257506;28;20369;-69
2021/05/09 04:52:41;;;;;;;9.73;4.32;;;;;;;;;;8273391;28;20476;-68
2021/05/09 04:56:44;;;;;;;11.65;5.63;;;;;;;;;;8292324;28;20455;-68
2021/05/09 05:00:58;;;;;;;8.55;4.00;;;;;;;;;;8291377;28;20486;-69
2021/05/09 05:05:02;;;;;;;7.55;3.70;;;;;;;;;;8291035;28;20463;-69
2021/05/09 05:09:06;;;;;;;7.97;4.07;;;;;;;;;;8290420;28;20451;-68
2021/05/09 05:13:18;;;;;;;12.20;5.82;;;;;;;;;;8290131;28;20482;-69
2021/05/09 05:17:22;;;;;;;10.65;6.43;;;;;;;;;;8292442;28;20467;-68
2021/05/09 05:21:27;;;;;;;7.30;4.22;;;;;;;;;;8289689;28;20061;-69
2021/05/09 05:25:31;;;;;;;7.97;3.67;;;;;;;;;;8290619;28;20399;-69
2021/05/09 05:29:36;;;;;;;7.43;3.70;;;;;;;;;;8296231;28;20391;-70
2021/05/09 05:33:40;;;;;;;4.57;3.05;;;;;;;;;;8296435;28;20459;-72
2021/05/09 05:37:45;;;;;;;8.43;3.65;;;;;;;;;;8263961;28;20336;-69
2021/05/09 05:41:49;;;;;;;7.72;3.40;;;;;;;;;;8297072;28;20357;-68
2021/05/09 05:45:56;;;;;;;7.45;3.83;;;;;;;;;;8298506;28;20052;-70
2021/05/09 05:50:00;;;;;;;7.70;3.85;;;;;;;;;;8278759;28;20060;-69
2021/05/09 05:54:06;;;;;;;8.32;2.83;;;;;;;;;;8296608;28;20379;-69
2021/05/09 05:58:10;;;;;;;7.13;2.92;;;;;;;;;;8295652;28;20392;-71
2021/05/09 06:02:14;;;;;;;4.78;2.47;;;;;;;;;;8296908;28;20348;-71
2021/05/09 06:06:19;;;;;;;5.57;2.60;;;;;;;;;;8295524;28;20455;-70
2021/05/09 06:10:23;;;;;;;5.25;2.17;;;;;;;;;;8295347;28;20466;-70
2021/05/09 06:14:29;;;;;;;4.10;1.83;;;;;;;;;;8294970;28;20475;-69
2021/05/09 06:18:33;;;;;;;2.75;1.85;;;;;;;;;;8296462;28;20074;-70
2021/05/09 06:22:38;;;;;;;4.25;2.03;;;;;;;;;;8277803;28;20380;-70
2021/05/09 06:26:42;;;;;;;3.90;2.03;;;;;;;;;;8296108;28;20075;-69
2021/05/09 06:30:50;;;;;;;4.45;1.80;;;;;;;;;;8276631;28;20483;-69
2021/05/09 06:34:53;;;;;;;2.63;1.70;;;;;;;;;;8295545;28;20359;-69
2021/05/09 06:38:58;;;;;;;3.25;1.70;;;;;;;;;;8277228;28;20391;-69
2021/05/09 06:43:04;;;;;;;3.45;1.77;;;;;;;;;;8295465;28;20348;-69
2021/05/09 06:47:08;;;;;;;2.00;1.25;;;;;;;;;;8295178;28;20071;-69
2021/05/09 06:51:13;;;;;;;2.83;1.73;;;;;;;;;;8294997;28;20394;-69
2021/05/09 06:55:19;;;;;;;3.65;1.45;;;;;;;;;;8277131;28;20057;-70
2021/05/09 06:59:23;;;;;;;2.35;1.10;;;;;;;;;;8295061;28;20145;-68
2021/05/09 07:03:28;;;;;;;1.52;1.05;;;;;;;;;;8293879;28;20471;-69
2021/05/09 07:07:36;;;;;;;3.15;1.33;;;;;;;;;;8293678;28;20398;-69
2021/05/09 07:11:39;;;;;;;2.57;1.40;;;;;;;;;;8294188;28;20052;-69
2021/05/09 07:15:45;;;;;;;2.25;0.95;;;;;;;;;;8277150;28;20479;-69
2021/05/09 07:19:50;;;;;;;3.38;1.45;;;;;;;;;;8293629;28;20460;-69
2021/05/09 07:23:54;;;;;;;3.28;1.33;;;;;;;;;;8293763;28;20467;-69
2021/05/09 07:28:07;;;;;;;1.80;1.30;;;;;;;;;;8293186;28;20456;-69
2021/05/09 07:32:11;;;;;;;4.25;2.20;;;;;;;;;;8292501;28;20075;-69
2021/05/09 07:36:17;;;;;;;2.75;1.40;;;;;;;;;;8293352;28;20468;-69
2021/05/09 07:40:22;;;;;;;7.32;1.42;;;;;;;;;;8294391;28;20349;-69
2021/05/09 07:44:27;;;;;;;4.25;1.90;;;;;;;;;;8277460;28;20402;-69
2021/05/09 07:48:31;;;;;;;4.78;1.70;;;;;;;;;;8292778;28;20487;-70
2021/05/09 07:52:36;;;;;;;4.45;1.30;;;;;;;;;;8291650;28;20393;-69
2021/05/09 07:56:41;;;;;;;3.65;1.63;;;;;;;;;;8295253;28;20383;-68
2021/05/09 08:00:47;;;;;;;6.75;1.48;;;;;;;;;;8293034;28;20376;-69
2021/05/09 08:04:51;;;;;;;3.65;1.80;;;;;;;;;;8275939;28;20059;-68
2021/05/09 08:08:55;;;;;;;3.22;1.45;;;;;;;;;;8259427;28;20471;-68
2021/05/09 08:12:59;;;;;;;4.50;1.88;;;;;;;;;;8287284;28;20480;-69
2021/05/09 08:17:04;;;;;;;3.15;1.75;;;;;;;;;;8292407;28;20078;-68
2021/05/09 08:21:08;;;;;;;4.32;1.60;;;;;;;;;;8291369;28;20376;-69
2021/05/09 08:25:14;;;;;;;4.47;1.70;;;;;;;;;;8291044;28;20056;-68
2021/05/09 08:29:24;;;;;;;4.00;1.70;;;;;;;;;;8275348;28;20048;-68
2021/05/09 08:33:28;;;;;;;3.63;1.70;;;;;;;;;;8291443;28;20056;-69
2021/05/09 08:37:32;;;;;;;2.10;1.05;;;;;;;;;;8273482;28;20056;-68
2021/05/09 08:41:41;;;;;;;2.65;1.33;;;;;;;;;;8273112;28;20483;-69
2021/05/09 08:45:46;;;;;;;2.47;1.30;;;;;;;;;;8275051;28;20079;-71
2021/05/09 08:49:51;;;;;;;2.60;1.50;;;;;;;;;;8291357;28;20368;-69
2021/05/09 08:53:56;;;;;;;3.28;1.58;;;;;;;;;;8290934;28;20075;-70
2021/05/09 08:58:01;;;;;;;2.67;1.27;;;;;;;;;;8291788;28;20052;-70
2021/05/09 09:02:06;;;;;;;1.98;1.20;;;;;;;;;;8290153;28;20483;-70
2021/05/09 09:06:16;;;;;;;2.30;1.10;;;;;;;;;;8291988;28;20440;-70
2021/05/09 09:10:29;;;;;;;3.42;0.93;;;;;;;;;;8273976;28;20491;-69
2021/05/09 09:14:34;;;;;;;2.20;1.15;;;;;;;;;;8292319;28;20332;-69
2021/05/09 09:18:43;;;;;;;2.33;1.10;;;;;;;;;;8290624;28;20478;-71
2021/05/09 09:22:50;;;;;;;4.63;1.10;;;;;;;;;;8291787;28;20397;-70
2021/05/09 09:26:55;;;;;;;1.90;1.00;;;;;;;;;;8290903;28;20502;-69
2021/05/09 09:30:59;;;;;;;2.67;1.27;;;;;;;;;;8271998;28;20368;-69
2021/05/09 09:35:04;;;;;;;1.73;1.10;;;;;;;;;;8289004;28;20357;-69
2021/05/09 09:39:10;;;;;;;1.67;0.80;;;;;;;;;;8271819;28;20375;-69
2021/05/09 09:43:18;;;;;;;1.75;1.17;;;;;;;;;;8271878;28;20481;-70
2021/05/09 09:47:50;;;;;;;1.65;1.05;;;;;;;;;;8290088;28;20071;-70
2021/05/09 09:51:59;;;;;;;1.70;1.10;;;;;;;;;;8290319;28;20406;-69
2021/05/09 09:56:09;;;;;;;2.17;1.00;;;;;;;;;;8289469;28;20056;-68
2021/05/09 10:00:16;;;;;;;1.60;0.95;;;;;;;;;;8255817;28;20390;-69
2021/05/09 10:04:21;;;;;;;0.98;0.70;;;;;;;;;;8289519;28;20406;-69
2021/05/09 10:08:27;;;;;;;1.02;0.80;;;;;;;;;;8272502;28;20375;-68
2021/05/09 10:12:31;;;;;;;0.85;0.60;;;;;;;;;;8290424;28;20045;-68
2021/05/09 10:16:40;;;;;;;6.32;1.45;;;;;;;;;;8276998;28;20451;-69
2021/05/09 10:20:45;;;;;;;2.13;0.95;;;;;;;;;;8279163;28;20352;-68
2021/05/09 10:24:49;;;;;;;1.80;0.80;;;;;;;;;;8294559;28;20056;-68
2021/05/09 10:28:54;;;;;;;1.80;1.33;;;;;;;;;;8296667;28;20455;-68
2021/05/09 10:32:58;;;;;;;1.17;0.73;;;;;;;;;;8294995;28;20417;-69
2021/05/09 10:37:02;;;;;;;0.90;0.70;;;;;;;;;;8297367;28;20434;-70
2021/05/09 10:41:12;;;;;;;1.40;0.70;;;;;;;;;;8277796;28;20360;-69
2021/05/09 10:45:34;;;;;;;2.13;0.68;;;;;;;;;;8276331;28;20052;-69
2021/05/09 10:50:14;;;;;;;1.13;0.65;;;;;;;;;;8292924;28;20410;-70
2021/05/09 10:54:23;;;;;;;1.83;0.60;;;;;;;;;;8293546;28;20378;-70
2021/05/09 10:58:40;;;;;;;3.25;0.65;;;;;;;;;;8293143;28;20375;-69
2021/05/09 11:02:45;;;;;;;0.85;0.65;;;;;;;;;;8294130;28;20074;-69
2021/05/09 11:06:51;;;;;;;2.25;0.80;;;;;;;;;;8292005;28;20481;-70
2021/05/09 11:10:55;;;;;;;1.13;0.57;;;;;;;;;;8276338;28;20048;-70
2021/05/09 11:15:25;;;;;;;0.80;0.55;;;;;;;;;;8293423;28;20364;-69
2021/05/09 11:19:47;;;;;;;1.13;0.50;;;;;;;;;;8290825;28;20514;-69
2021/05/09 11:23:52;;;;;;;1.65;1.13;;;;;;;;;;8276739;28;20362;-69
2021/05/09 11:28:27;;;;;;;4.38;0.80;;;;;;;;;;8294517;28;20416;-68
2021/05/09 11:32:33;;;;;;;3.25;1.02;;;;;;;;;;8293209;28;20478;-68
2021/05/09 11:36:40;;;;;;;5.63;0.60;;;;;;;;;;8277312;28;20366;-69
2021/05/09 11:40:46;;;;;;;3.13;0.70;;;;;;;;;;8292358;28;20481;-68
2021/05/09 11:44:52;;;;;;;1.75;0.50;;;;;;;;;;8292509;28;20053;-68
2021/05/09 11:49:27;;;;;;;1.52;0.70;;;;;;;;;;8293436;28;20329;-69
2021/05/09 11:53:32;;;;;;;1.77;0.90;;;;;;;;;;8292402;28;20414;-71
2021/05/09 11:57:38;;;;;;;1.48;0.68;;;;;;;;;;8292984;28;20386;-70
2021/05/09 12:01:44;;;;;;;8.77;3.97;;;;;;;;;;8292826;28;20470;-69
2021/05/09 12:05:48;;;;;;;2.05;1.00;;;;;;;;;;8292689;28;20477;-68
2021/05/09 12:10:25;;;;;;;2.35;1.35;;;;;;;;;;8294644;28;20474;-69
2021/05/09 12:14:30;;;;;;;1.58;0.85;;;;;;;;;;8289116;28;20056;-70
2021/05/09 12:18:34;;;;;;;1.05;0.80;;;;;;;;;;8293441;28;20052;-69
2021/05/09 12:22:40;;;;;;;2.67;1.15;;;;;;;;;;8293926;28;20462;-68
2021/05/09 12:27:03;;;;;;;2.55;0.47;;;;;;;;;;8291580;28;20352;-69
2021/05/09 12:31:10;;;;;;;0.47;0.45;;;;;;;;;;8290916;28;20483;-68
2021/05/09 12:35:18;;;;;;;1.77;0.80;;;;;;;;;;8291852;28;20074;-69
2021/05/09 12:39:23;;;;;;;3.25;0.88;;;;;;;;;;8293479;28;20348;-69
2021/05/09 12:43:56;;;;;;;2.20;0.85;;;;;;;;;;8273612;28;20387;-70
2021/05/09 12:48:10;;;;;;;1.65;0.60;;;;;;;;;;8274191;28;20333;-69
2021/05/09 12:52:14;;;;;;;1.85;0.80;;;;;;;;;;8273060;28;20056;-70
2021/05/09 12:56:32;;;;;;;3.70;0.90;;;;;;;;;;8273728;28;20467;-69
2021/05/09 13:00:37;;;;;;;3.50;1.25;;;;;;;;;;8290714;28;20379;-69
2021/05/09 13:04:47;;;;;;;1.05;0.50;;;;;;;;;;8292861;28;20414;-69
2021/05/09 13:08:53;;;;;;;1.27;0.60;;;;;;;;;;8274652;28;20110;-69
2021/05/09 13:12:59;;;;;;;0.70;0.63;;;;;;;;;;8289707;28;20056;-68
2021/05/09 13:17:04;;;;;;;2.58;0.68;;;;;;;;;;8290264;28;20476;-69
2021/05/09 13:21:08;;;;;;;0.90;0.60;;;;;;;;;;8290569;28;20470;-68
2021/05/09 13:25:16;;;;;;;1.73;0.55;;;;;;;;;;8290091;28;20083;-68
2021/05/09 13:29:21;;;;;;;;;;;;;;;;;;8291687;28;20348;-68
2021/05/09 13:33:25;;;;;;;0.50;0.40;;;;;;;;;;8256174;28;20331;-68
2021/05/09 13:37:29;;;;;;;1.77;0.63;;;;;;;;;;8257519;28;20352;-68
2021/05/09 13:41:35;;;;;;;1.15;0.77;;;;;;;;;;8256540;28;20452;-68
2021/05/09 13:45:40;;;;;;;2.90;0.77;;;;;;;;;;8258090;28;20495;-69
2021/05/09 13:49:45;;;;;;;0.95;0.60;;;;;;;;;;8259799;28;20396;-68
2021/05/09 13:53:49;;;;;;;1.95;0.77;;;;;;;;;;8262169;28;20072;-68
2021/05/09 13:57:54;;;;;;;1.80;0.65;;;;;;;;;;8263212;28;20053;-68
2021/05/09 14:01:58;;;;;;;1.00;0.60;;;;;;;;;;8265078;28;20368;-68
2021/05/09 14:06:03;;;;;;;1.77;0.95;;;;;;;;;;8262912;28;20463;-70
2021/05/09 14:10:08;;;;;;;4.22;0.70;;;;;;;;;;8262286;28;20049;-68
2021/05/09 14:14:12;;;;;;;1.35;0.90;;;;;;;;;;8264125;28;20480;-68
2021/05/09 14:18:18;;;;;;;2.17;1.08;;;;;;;;;;8263301;28;20464;-70
2021/05/09 14:22:23;;;;;;;3.72;1.52;;;;;;;;;;8263913;28;20444;-69
2021/05/09 14:26:28;;;;;;;1.77;0.60;;;;;;;;;;8262772;28;20060;-68
2021/05/09 14:30:32;;;;;;;1.13;0.80;;;;;;;;;;8263897;28;20479;-68
2021/05/09 14:34:37;;;;;;;1.40;0.70;;;;;;;;;;8298069;28;20060;-69
2021/05/09 14:38:41;;;;;;;3.83;0.90;;;;;;;;;;8276766;28;20353;-68
2021/05/09 14:42:45;;;;;;;1.00;0.57;;;;;;;;;;8296583;28;20102;-68
2021/05/09 14:46:50;;;;;;;1.63;0.75;;;;;;;;;;8295797;28;20478;-68
2021/05/09 14:50:54;;;;;;;1.15;0.70;;;;;;;;;;8278803;28;20056;-68
2021/05/09 14:54:59;;;;;;;2.03;0.95;;;;;;;;;;8295330;28;20336;-70
2021/05/09 14:59:04;;;;;;;3.08;1.10;;;;;;;;;;8277075;28;20052;-70
2021/05/09 15:03:09;;;;;;;1.63;0.65;;;;;;;;;;8296484;28;20466;-70
2021/05/09 15:07:12;;;;;;;1.85;0.73;;;;;;;;;;8293802;28;20386;-69
2021/05/09 15:11:17;;;;;;;1.88;0.70;;;;;;;;;;8276534;28;20484;-70
2021/05/09 15:15:21;;;;;;;2.53;0.68;;;;;;;;;;8294137;28;20074;-70
2021/05/09 15:19:25;;;;;;;2.80;0.73;;;;;;;;;;8294063;28;20059;-70
2021/05/09 15:23:29;;;;;;;1.80;0.55;;;;;;;;;;8293423;28;20060;-70
2021/05/09 15:27:34;;;;;;;1.35;0.70;;;;;;;;;;8293056;28;20383;-70
2021/05/09 15:31:38;;;;;;;1.38;0.57;;;;;;;;;;8293517;28;20079;-71
2021/05/09 15:35:43;;;;;;;10.90;5.55;;;;;;;;;;8294889;28;20060;-70
2021/05/09 15:39:47;;;;;;;3.92;1.02;;;;;;;;;;8291869;28;20482;-70
2021/05/09 15:43:53;;;;;;;1.27;1.10;;;;;;;;;;8276170;28;20367;-69
2021/05/09 15:47:58;;;;;;;0.63;0.57;;;;;;;;;;8292736;28;20443;-70
2021/05/09 15:52:03;;;;;;;1.38;0.93;;;;;;;;;;8292680;28;20394;-70
2021/05/09 15:56:07;;;;;;;1.83;0.50;;;;;;;;;;8290098;28;20498;-68
2021/05/09 16:00:13;;;;;;;4.93;1.20;;;;;;;;;;8292234;28;20048;-69
2021/05/09 16:04:17;;;;;;;2.75;1.58;;;;;;;;;;8293538;28;20052;-69
2021/05/09 16:08:21;;;;;;;0.70;0.55;;;;;;;;;;8292844;28;20378;-69
2021/05/09 16:12:26;;;;;;;2.97;1.13;;;;;;;;;;8291268;28;20494;-68
2021/05/09 16:16:33;;;;;;;6.53;2.20;;;;;;;;;;8294317;28;20594;-71
2021/05/09 16:20:39;;;;;;;2.58;1.55;;;;;;;;;;8291779;28;20347;-70
2021/05/09 16:24:44;;;;;;;1.85;1.20;;;;;;;;;;8292126;28;20476;-69
2021/05/09 16:28:58;;;;;;;1.95;1.30;;;;;;;;;;8291608;28;20371;-70
2021/05/09 16:33:01;;;;;;;4.13;2.00;;;;;;;;;;8256139;28;20365;-69
2021/05/09 16:37:06;;;;;;;3.80;1.50;;;;;;;;;;8255840;28;20061;-70
2021/05/09 16:41:10;;;;;;;3.38;1.80;;;;;;;;;;8258188;28;20049;-69
2021/05/09 16:45:15;;;;;;;2.60;1.55;;;;;;;;;;8260746;28;20393;-70
2021/05/09 16:49:20;;;;;;;3.15;2.00;;;;;;;;;;8254757;28;20482;-69
2021/05/09 16:53:27;;;;;;;10.93;1.55;;;;;;;;;;8253721;28;20471;-70
2021/05/09 16:57:33;;;;;;;4.23;1.40;;;;;;;;;;8258766;28;20436;-69
2021/05/09 17:01:38;;;;;;;4.25;2.30;;;;;;;;;;8257693;28;20813;-70
2021/05/09 17:05:42;;;;;;;5.78;2.97;;;;;;;;;;8257325;28;20498;-70
2021/05/09 17:09:47;;;;;;;8.75;3.08;;;;;;;;;;8256688;28;20456;-70
2021/05/09 17:13:51;;;;;;;9.73;4.60;;;;;;;;;;8258674;28;20060;-70
2021/05/09 17:17:56;;;;;;;3.17;1.70;;;;;;;;;;8260728;28;20464;-72
2021/05/09 17:22:00;;;;;;;5.35;2.63;;;;;;;;;;8257790;28;20372;-69
2021/05/09 17:26:04;;;;;;;5.00;2.30;;;;;;;;;;8261805;28;20452;-69
2021/05/09 17:30:09;;;;;;;7.80;2.40;;;;;;;;;;8266047;28;20475;-70
2021/05/09 17:34:17;;;;;;;7.72;4.00;;;;;;;;;;8292862;28;20497;-69
2021/05/09 17:38:23;;;;;;;8.95;3.03;;;;;;;;;;8296634;28;20071;-68
2021/05/09 17:42:27;;;;;;;6.28;2.70;;;;;;;;;;8298182;28;20463;-69
2021/05/09 17:46:31;;;;;;;1.95;1.20;;;;;;;;;;8296535;28;20117;-70
2021/05/09 17:50:38;;;;;;;1.58;1.05;;;;;;;;;;8297354;28;20391;-69
2021/05/09 17:54:41;;;;;;;3.85;1.00;;;;;;;;;;8297755;28;20367;-68
2021/05/09 17:58:47;;;;;;;2.85;0.88;;;;;;;;;;8296258;28;20355;-69
2021/05/09 18:02:52;;;;;;;3.95;1.40;;;;;;;;;;8296314;28;20321;-69
2021/05/09 18:06:56;;;;;;;2.35;1.13;;;;;;;;;;8296511;28;20455;-69
2021/05/09 18:11:02;;;;;;;2.80;1.70;;;;;;;;;;8296389;28;20052;-68
2021/05/09 18:15:11;;;;;;;5.35;1.73;;;;;;;;;;8295022;28;20464;-69
2021/05/09 18:19:29;;;;;;;6.00;1.65;;;;;;;;;;8262883;28;20376;-69
2021/05/09 18:23:34;;;;;;;5.22;2.30;;;;;;;;;;8295218;28;20448;-69
2021/05/09 18:27:39;;;;;;;8.75;2.85;;;;;;;;;;8277548;28;20479;-69
2021/05/09 18:31:43;;;;;;;11.73;2.10;;;;;;;;;;8294777;28;20414;-69
2021/05/09 18:35:48;;;;;;;5.72;2.22;;;;;;;;;;8296746;28;20363;-69
2021/05/09 18:39:52;;;;;;;4.43;2.40;;;;;;;;;;8276932;28;20471;-69
2021/05/09 18:43:57;;;;;;;3.22;1.90;;;;;;;;;;8295125;28;20471;-69
2021/05/09 18:48:01;;;;;;;4.30;2.10;;;;;;;;;;8276584;28;20548;-70
2021/05/09 18:52:06;;;;;;;5.30;2.65;;;;;;;;;;8294102;28;20506;-69
2021/05/09 18:56:10;;;;;;;10.07;4.82;;;;;;;;;;8294402;28;20383;-70
2021/05/09 19:00:15;;;;;;;11.50;3.22;;;;;;;;;;8277118;28;20053;-70
2021/05/09 19:04:20;;;;;;;6.65;2.13;;;;;;;;;;8295703;28;20467;-69
2021/05/09 19:08:30;;;;;;;5.82;1.88;;;;;;;;;;8294716;28;20418;-69
2021/05/09 19:12:35;;;;;;;8.13;2.38;;;;;;;;;;8278171;28;20478;-68
2021/05/09 19:16:42;;;;;;;5.00;2.20;;;;;;;;;;8276629;28;20467;-68
2021/05/09 19:20:48;;;;;;;6.90;2.10;;;;;;;;;;8296674;28;20074;-68
2021/05/09 19:24:52;;;;;;;4.50;2.20;;;;;;;;;;8295102;28;20052;-69
2021/05/09 19:28:57;;;;;;;4.38;2.47;;;;;;;;;;8296054;28;20443;-68
2021/05/09 19:33:01;;;;;;;10.23;2.53;;;;;;;;;;8292823;28;20479;-68
2021/05/09 19:37:05;;;;;;;7.72;2.90;;;;;;;;;;8293688;28;20387;-69
2021/05/09 19:41:10;;;;;;;11.15;2.67;;;;;;;;;;8294534;28;20074;-70
2021/05/09 19:45:13;;;;;;;7.75;2.38;;;;;;;;;;8292631;28;20474;-70
2021/05/09 19:49:18;;;;;;;9.73;3.67;;;;;;;;;;8273847;28;20432;-70
2021/05/09 19:53:23;;;;;;;4.60;2.00;;;;;;;;;;8292208;28;20075;-69
2021/05/09 19:57:28;;;;;;;7.10;2.40;;;;;;;;;;8294267;28;20466;-70
2021/05/09 20:01:32;;;;;;;8.05;2.50;;;;;;;;;;8292720;28;20352;-70
2021/05/09 20:05:38;;;;;;;6.68;2.72;;;;;;;;;;8292685;28;20382;-69
2021/05/09 20:09:42;;;;;;;4.80;2.67;;;;;;;;;;8291547;28;20365;-68
2021/05/09 20:13:47;;;;;;;5.57;2.60;;;;;;;;;;8292309;28;20475;-69
2021/05/09 20:17:51;;;;;;;7.95;3.70;;;;;;;;;;8291532;28;20376;-69
2021/05/09 20:21:56;;;;;;;8.65;4.30;;;;;;;;;;8291537;28;20485;-70
2021/05/09 20:26:00;;;;;;;10.85;6.00;;;;;;;;;;8289617;28;20354;-70
2021/05/09 20:30:07;;;;;;;11.15;5.50;;;;;;;;;;8291490;28;20373;-68
2021/05/09 20:34:13;;;;;;;7.63;4.38;;;;;;;;;;8290654;28;20064;-69
2021/05/09 20:38:18;;;;;;;8.45;3.90;;;;;;;;;;8292679;28;20447;-69
2021/05/09 20:42:24;;;;;;;15.55;5.30;;;;;;;;;;8290692;28;20360;-68
2021/05/09 20:46:29;;;;;;;11.82;4.38;;;;;;;;;;8290185;28;20479;-69
2021/05/09 20:50:34;;;;;;;7.35;3.20;;;;;;;;;;8289428;28;20348;-69
2021/05/09 20:54:38;;;;;;;8.30;3.33;;;;;;;;;;8290925;28;20486;-68
2021/05/09 20:58:43;;;;;;;5.22;2.60;;;;;;;;;;8290700;28;20418;-70
2021/05/09 21:02:47;;;;;;;6.38;2.75;;;;;;;;;;8291605;28;20398;-69
2021/05/09 21:06:52;;;;;;;7.18;2.78;;;;;;;;;;8291762;28;20075;-69
2021/05/09 21:10:56;;;;;;;3.22;2.05;;;;;;;;;;8272788;28;20380;-69
2021/05/09 21:15:00;;;;;;;3.42;2.05;;;;;;;;;;8272066;28;20363;-69
2021/05/09 21:19:04;;;;;;;5.95;2.60;;;;;;;;;;8289474;28;20060;-70
2021/05/09 21:23:08;;;;;;;6.45;2.42;;;;;;;;;;8291421;28;20463;-71
2021/05/09 21:27:13;;;;;;;3.40;1.80;;;;;;;;;;8290554;28;20470;-70
2021/05/09 21:31:17;;;;;;;4.97;2.30;;;;;;;;;;8290360;28;20436;-69
2021/05/09 21:35:25;;;;;;;6.78;2.05;;;;;;;;;;8290270;28;20317;-70
2021/05/09 21:39:29;;;;;;;4.80;1.80;;;;;;;;;;8290249;28;20467;-70
2021/05/09 21:43:33;;;;;;;5.25;2.30;;;;;;;;;;8289919;28;20397;-70
2021/05/09 21:47:39;;;;;;;3.92;2.03;;;;;;;;;;8290646;28;20490;-69
2021/05/09 21:51:43;;;;;;;7.40;2.40;;;;;;;;;;8272031;28;20390;-69
2021/05/09 21:55:47;;;;;;;2.88;1.80;;;;;;;;;;8271949;28;20410;-69
2021/05/09 21:59:52;;;;;;;5.47;2.25;;;;;;;;;;8289516;28;20367;-69
2021/05/09 22:03:56;;;;;;;5.97;2.28;;;;;;;;;;8290260;28;20370;-69
2021/05/09 22:08:01;;;;;;;4.03;2.15;;;;;;;;;;8289703;28;20489;-70
2021/05/09 22:12:06;;;;;;;7.63;2.40;;;;;;;;;;8294652;28;20387;-71
2021/05/09 22:16:11;;;;;;;5.88;2.60;;;;;;;;;;8296098;28;20463;-69
2021/05/09 22:20:16;;;;;;;5.55;2.88;;;;;;;;;;8296147;28;20505;-69
2021/05/09 22:24:21;;;;;;;6.80;2.80;;;;;;;;;;8298527;28;20483;-69
2021/05/09 22:28:29;;;;;;;8.33;2.77;;;;;;;;;;8297698;28;20447;-71
2021/05/09 22:32:33;;;;;;;7.35;3.45;;;;;;;;;;8277236;28;20082;-70
2021/05/09 22:36:38;;;;;;;17.70;6.90;;;;;;;;;;8277443;28;20482;-69
2021/05/09 22:40:42;;;;;;;9.82;5.03;;;;;;;;;;8295372;28;20052;-68
2021/05/09 22:44:48;;;;;;;14.20;5.25;;;;;;;;;;8295790;28;20421;-68
2021/05/09 22:48:52;;;;;;;9.93;5.00;;;;;;;;;;8293081;28;20451;-69
2021/05/09 22:52:55;;;;;;;7.50;3.67;;;;;;;;;;8295839;28;20458;-69
2021/05/09 22:57:00;;;;;;;10.93;3.10;;;;;;;;;;8296749;28;20463;-69
2021/05/09 23:01:04;;;;;;;9.32;4.65;;;;;;;;;;8294102;28;20052;-69
2021/05/09 23:05:09;;;;;;;10.93;4.93;;;;;;;;;;8294087;28;20475;-69
2021/05/09 23:09:14;;;;;;;8.50;4.75;;;;;;;;;;8295593;28;20324;-69
2021/05/09 23:13:18;;;;;;;10.35;3.80;;;;;;;;;;8293987;28;20409;-69
2021/05/09 23:17:21;;;;;;;8.27;3.33;;;;;;;;;;8294476;28;20057;-69
2021/05/09 23:21:33;;;;;;;9.63;3.75;;;;;;;;;;8293423;28;20371;-69
2021/05/09 23:25:37;;;;;;;9.38;3.67;;;;;;;;;;8294300;28;20470;-68
2021/05/09 23:29:41;;;;;;;7.45;4.13;;;;;;;;;;8276875;28;20371;-68
2021/05/09 23:33:46;;;;;;;8.23;3.45;;;;;;;;;;8293080;28;20084;-69
2021/05/09 23:37:51;;;;;;;7.43;2.72;;;;;;;;;;8295831;28;20574;-69
2021/05/09 23:41:56;;;;;;;7.13;2.75;;;;;;;;;;8296062;28;20477;-68
2021/05/09 23:46:02;;;;;;;6.75;3.55;;;;;;;;;;8292574;28;20078;-70
2021/05/09 23:50:07;;;;;;;5.00;2.90;;;;;;;;;;8293600;28;20474;-69
2021/05/09 23:54:12;;;;;;;5.97;3.35;;;;;;;;;;8293764;28;20479;-68
2021/05/09 23:58:18;;;;;;;4.47;2.67;;;;;;;;;;8275810;28;20455;-69
